Airfield :
LOGIN :

Register | Disclaimer

   EN    FR    IT 

 










Legend :    VFR   Marginal VFR   IFR   Intensive IFR   Very Intensive IFR
Visi :
Ceiling :
>= 8 km
>= 3000ft
5 to 8 km
1000 to 3000 ft
1500m to 5 km
500 to 1000 ft
800 to 1500m
200 to 500 ft
< 800m
< 200 ft
Symbols :   Thunderstorms  Fog  Heavy snow  Heavy precipitations  Wind > 20 kt
SIGMETs :     Misc.  Thunderstorms  Icing  Turbulence  Mountain Waves  Volcanic Ashes






- Airport Elevation : 29 ft
- IATA code : SVG


ENZV - Sola

CURRENT METAR :
  • 232350Z 16006KT 9999 -RA SCT008 BKN017 BKN048 08/07 Q0999

EXPIRED METARs :
  • 232320Z 15007KT 6000 DZ FEW005 SCT018 BKN030 08/07 Q0999
  • 232250Z 14006KT 9999 -RA FEW020 SCT032 BKN045 08/07 Q0999
  • 232220Z 15007KT 9999 -RA FEW015 SCT020 BKN028 08/07 Q0999
  • 232150Z 16006KT 9999 -RA FEW015 SCT018 BKN022 08/07 Q1000
  • 232120Z 15006KT 9999 -RA FEW015 BKN042 BKN057 08/07 Q1000

TAF TAF ENZV
Valid from the 24 at 00:00 until the 25 at 00:00 UTC


2400/2424 14010KT 9999 -RA FEW008 BKN020
TEMPO 2400/2404 14015G25KT RA BKN010
PROB40 2403/2407 25010KT
BECMG 2415/2418 14020KT BKN012
TEMPO 2418/2424 16018G30KT RA BKN006



MET'MAP, your aeronautical weather chart ! - Copyright ORBIFLY December 2007 - Disclaimer

ORBIFLY MET'MAP TEAM :

Programming & Development : Alexandra Zaïnal
Concept & original design : Baudouin d'Aumeries
Assistance for programming : Marc-Olivier Méhu
Technical & hardware support : Manuel Goepfert

Contact : metmap@orbifly.com




SOURCES & CREDITS :

   NOAA